sensor_id;sensor_type;location;lat;lon;timestamp;temperature;humidity
4699;DHT22;33708;49.466;11.176;2023-02-03T00:01:21;6.00;1.00
4699;DHT22;33708;49.466;11.176;2023-02-03T00:03:47;6.00;1.00
4699;DHT22;33708;49.466;11.176;2023-02-03T00:06:13;6.00;1.00
4699;DHT22;33708;49.466;11.176;2023-02-03T00:08:39;6.00;1.00
4699;DHT22;33708;49.466;11.176;2023-02-03T00:11:05;5.90;1.00
4699;DHT22;33708;49.466;11.176;2023-02-03T00:13:31;6.00;1.00
4699;DHT22;33708;49.466;11.176;2023-02-03T00:15:56;6.00;1.00
4699;DHT22;33708;49.466;11.176;2023-02-03T00:18:22;5.90;1.00
4699;DHT22;33708;49.466;11.176;2023-02-03T00:20:48;5.90;1.00
4699;DHT22;33708;49.466;11.176;2023-02-03T00:23:13;5.90;1.00
4699;DHT22;33708;49.466;11.176;2023-02-03T00:25:39;5.90;1.00
4699;DHT22;33708;49.466;11.176;2023-02-03T00:28:05;6.00;1.00
4699;DHT22;33708;49.466;11.176;2023-02-03T00:30:34;5.90;1.00
4699;DHT22;33708;49.466;11.176;2023-02-03T00:33:00;5.80;1.00
4699;DHT22;33708;49.466;11.176;2023-02-03T00:35:26;5.90;1.00
4699;DHT22;33708;49.466;11.176;2023-02-03T00:37:53;6.00;1.00
4699;DHT22;33708;49.466;11.176;2023-02-03T00:40:20;5.80;1.00
4699;DHT22;33708;49.466;11.176;2023-02-03T00:42:46;5.80;1.00
4699;DHT22;33708;49.466;11.176;2023-02-03T00:45:11;5.90;1.00
4699;DHT22;33708;49.466;11.176;2023-02-03T00:47:37;5.90;1.00
4699;DHT22;33708;49.466;11.176;2023-02-03T00:50:04;5.90;1.00
4699;DHT22;33708;49.466;11.176;2023-02-03T00:52:30;5.90;1.00
4699;DHT22;33708;49.466;11.176;2023-02-03T00:54:55;5.90;1.00
4699;DHT22;33708;49.466;11.176;2023-02-03T00:57:21;5.90;1.00
4699;DHT22;33708;49.466;11.176;2023-02-03T00:59:47;5.90;1.00
4699;DHT22;33708;49.466;11.176;2023-02-03T01:02:12;5.90;1.00
4699;DHT22;33708;49.466;11.176;2023-02-03T01:04:38;5.90;1.00
4699;DHT22;33708;49.466;11.176;2023-02-03T01:07:03;6.00;1.00
4699;DHT22;33708;49.466;11.176;2023-02-03T01:09:33;5.90;1.00
4699;DHT22;33708;49.466;11.176;2023-02-03T01:11:59;5.90;1.00
4699;DHT22;33708;49.466;11.176;2023-02-03T01:14:25;5.90;1.00
4699;DHT22;33708;49.466;11.176;2023-02-03T01:16:50;5.80;1.00
4699;DHT22;33708;49.466;11.176;2023-02-03T01:19:16;5.90;1.00
4699;DHT22;33708;49.466;11.176;2023-02-03T01:21:42;5.80;1.00
4699;DHT22;33708;49.466;11.176;2023-02-03T01:24:07;5.80;1.00
4699;DHT22;33708;49.466;11.176;2023-02-03T01:26:34;5.90;1.00
4699;DHT22;33708;49.466;11.176;2023-02-03T01:29:00;5.90;1.00
4699;DHT22;33708;49.466;11.176;2023-02-03T01:31:29;5.90;1.00
4699;DHT22;33708;49.466;11.176;2023-02-03T01:33:55;5.90;1.00
4699;DHT22;33708;49.466;11.176;2023-02-03T01:36:24;5.90;1.00
4699;DHT22;33708;49.466;11.176;2023-02-03T01:38:50;6.00;1.00
4699;DHT22;33708;49.466;11.176;2023-02-03T01:41:21;6.00;1.00
4699;DHT22;33708;49.466;11.176;2023-02-03T01:43:49;6.00;1.00
4699;DHT22;33708;49.466;11.176;2023-02-03T01:49:03;6.00;1.00
4699;DHT22;33708;49.466;11.176;2023-02-03T01:51:31;6.00;1.00
4699;DHT22;33708;49.466;11.176;2023-02-03T01:53:57;5.90;1.00
4699;DHT22;33708;49.466;11.176;2023-02-03T01:56:25;5.90;1.00
4699;DHT22;33708;49.466;11.176;2023-02-03T01:58:53;5.80;1.00
4699;DHT22;33708;49.466;11.176;2023-02-03T02:01:18;5.90;1.00
4699;DHT22;33708;49.466;11.176;2023-02-03T02:03:51;5.90;1.00
4699;DHT22;33708;49.466;11.176;2023-02-03T02:06:18;5.90;1.00
4699;DHT22;33708;49.466;11.176;2023-02-03T02:08:46;5.90;1.00
4699;DHT22;33708;49.466;11.176;2023-02-03T02:11:13;5.90;1.00
4699;DHT22;33708;49.466;11.176;2023-02-03T02:13:38;6.00;1.00
4699;DHT22;33708;49.466;11.176;2023-02-03T02:16:11;6.00;1.00
4699;DHT22;33708;49.466;11.176;2023-02-03T02:21:37;6.00;1.00
4699;DHT22;33708;49.466;11.176;2023-02-03T02:37:56;6.20;1.00
4699;DHT22;33708;49.466;11.176;2023-02-03T02:40:36;6.20;1.00
4699;DHT22;33708;49.466;11.176;2023-02-03T02:43:25;6.10;1.00
4699;DHT22;33708;49.466;11.176;2023-02-03T02:46:04;6.10;1.00
4699;DHT22;33708;49.466;11.176;2023-02-03T02:51:21;6.10;1.00
4699;DHT22;33708;49.466;11.176;2023-02-03T02:53:54;6.10;1.00
4699;DHT22;33708;49.466;11.176;2023-02-03T02:56:23;6.10;1.00
4699;DHT22;33708;49.466;11.176;2023-02-03T02:58:50;6.10;1.00
4699;DHT22;33708;49.466;11.176;2023-02-03T03:01:17;6.10;1.00
4699;DHT22;33708;49.466;11.176;2023-02-03T03:03:43;6.20;1.00
4699;DHT22;33708;49.466;11.176;2023-02-03T03:06:29;6.20;1.00
4699;DHT22;33708;49.466;11.176;2023-02-03T03:09:08;6.20;1.00
4699;DHT22;33708;49.466;11.176;2023-02-03T03:11:49;6.20;1.00
4699;DHT22;33708;49.466;11.176;2023-02-03T03:14:18;6.20;1.00
4699;DHT22;33708;49.466;11.176;2023-02-03T03:16:47;6.30;1.00
4699;DHT22;33708;49.466;11.176;2023-02-03T03:19:20;6.20;1.00
4699;DHT22;33708;49.466;11.176;2023-02-03T03:21:51;6.20;1.00
4699;DHT22;33708;49.466;11.176;2023-02-03T03:24:24;6.10;1.00
4699;DHT22;33708;49.466;11.176;2023-02-03T03:26:54;6.20;1.00
4699;DHT22;33708;49.466;11.176;2023-02-03T03:29:28;6.20;1.00
4699;DHT22;33708;49.466;11.176;2023-02-03T03:31:56;6.20;1.00
4699;DHT22;33708;49.466;11.176;2023-02-03T03:34:22;6.20;1.00
4699;DHT22;33708;49.466;11.176;2023-02-03T03:37:15;6.20;1.00
4699;DHT22;33708;49.466;11.176;2023-02-03T03:39:53;6.20;1.00
4699;DHT22;33708;49.466;11.176;2023-02-03T03:45:34;6.30;1.00
4699;DHT22;33708;49.466;11.176;2023-02-03T03:50:18;6.30;1.00
4699;DHT22;33708;49.466;11.176;2023-02-03T03:52:47;6.20;1.00
4699;DHT22;33708;49.466;11.176;2023-02-03T03:55:15;6.20;99.90
4699;DHT22;33708;49.466;11.176;2023-02-03T03:57:57;6.20;99.90
4699;DHT22;33708;49.466;11.176;2023-02-03T04:00:27;6.30;99.90
4699;DHT22;33708;49.466;11.176;2023-02-03T04:02:57;6.30;99.90
4699;DHT22;33708;49.466;11.176;2023-02-03T04:05:24;6.30;99.90
4699;DHT22;33708;49.466;11.176;2023-02-03T04:07:51;6.40;99.90
4699;DHT22;33708;49.466;11.176;2023-02-03T04:10:34;6.30;99.90
4699;DHT22;33708;49.466;11.176;2023-02-03T04:13:00;6.40;99.90
4699;DHT22;33708;49.466;11.176;2023-02-03T04:15:26;6.40;99.90
4699;DHT22;33708;49.466;11.176;2023-02-03T04:17:52;6.20;99.90
4699;DHT22;33708;49.466;11.176;2023-02-03T04:20:19;6.40;99.90
4699;DHT22;33708;49.466;11.176;2023-02-03T04:22:45;6.40;99.90
4699;DHT22;33708;49.466;11.176;2023-02-03T04:25:10;6.50;99.90
4699;DHT22;33708;49.466;11.176;2023-02-03T04:27:36;6.30;99.90
4699;DHT22;33708;49.466;11.176;2023-02-03T04:30:02;6.50;99.90
4699;DHT22;33708;49.466;11.176;2023-02-03T04:32:28;6.50;99.90
4699;DHT22;33708;49.466;11.176;2023-02-03T04:34:56;6.50;99.90
4699;DHT22;33708;49.466;11.176;2023-02-03T04:37:22;6.50;99.90
4699;DHT22;33708;49.466;11.176;2023-02-03T04:39:48;6.50;99.90
4699;DHT22;33708;49.466;11.176;2023-02-03T04:42:16;6.50;99.90
4699;DHT22;33708;49.466;11.176;2023-02-03T04:44:42;6.50;99.90
4699;DHT22;33708;49.466;11.176;2023-02-03T04:47:07;6.40;99.90
4699;DHT22;33708;49.466;11.176;2023-02-03T04:49:33;6.30;99.90
4699;DHT22;33708;49.466;11.176;2023-02-03T04:51:59;6.40;99.90
4699;DHT22;33708;49.466;11.176;2023-02-03T04:54:24;6.40;99.90
4699;DHT22;33708;49.466;11.176;2023-02-03T04:56:50;6.40;99.90
4699;DHT22;33708;49.466;11.176;2023-02-03T04:59:16;6.50;99.90
4699;DHT22;33708;49.466;11.176;2023-02-03T05:01:41;6.40;99.90
4699;DHT22;33708;49.466;11.176;2023-02-03T05:04:07;6.40;99.90
4699;DHT22;33708;49.466;11.176;2023-02-03T05:06:33;6.40;99.90
4699;DHT22;33708;49.466;11.176;2023-02-03T05:08:59;6.50;99.90
4699;DHT22;33708;49.466;11.176;2023-02-03T05:11:25;6.50;99.90
4699;DHT22;33708;49.466;11.176;2023-02-03T05:13:50;6.30;99.90
4699;DHT22;33708;49.466;11.176;2023-02-03T05:16:16;6.40;99.90
4699;DHT22;33708;49.466;11.176;2023-02-03T05:18:42;6.40;99.90
4699;DHT22;33708;49.466;11.176;2023-02-03T05:21:07;6.40;99.90
4699;DHT22;33708;49.466;11.176;2023-02-03T05:23:33;6.40;99.90
4699;DHT22;33708;49.466;11.176;2023-02-03T05:25:59;6.30;99.90
4699;DHT22;33708;49.466;11.176;2023-02-03T05:28:24;6.40;99.90
4699;DHT22;33708;49.466;11.176;2023-02-03T05:30:50;6.50;99.90
4699;DHT22;33708;49.466;11.176;2023-02-03T05:33:16;6.40;99.90
4699;DHT22;33708;49.466;11.176;2023-02-03T05:35:42;6.50;99.90
4699;DHT22;33708;49.466;11.176;2023-02-03T05:38:07;6.50;99.90
4699;DHT22;33708;49.466;11.176;2023-02-03T05:40:33;6.40;99.90
4699;DHT22;33708;49.466;11.176;2023-02-03T05:43:18;6.50;99.90
4699;DHT22;33708;49.466;11.176;2023-02-03T05:45:43;6.40;99.90
4699;DHT22;33708;49.466;11.176;2023-02-03T05:48:09;6.50;99.90
4699;DHT22;33708;49.466;11.176;2023-02-03T05:50:35;6.50;99.90
4699;DHT22;33708;49.466;11.176;2023-02-03T05:53:02;6.50;99.90
4699;DHT22;33708;49.466;11.176;2023-02-03T05:55:28;6.50;99.90
4699;DHT22;33708;49.466;11.176;2023-02-03T05:57:54;6.40;99.90
4699;DHT22;33708;49.466;11.176;2023-02-03T06:00:21;6.40;99.90
4699;DHT22;33708;49.466;11.176;2023-02-03T06:02:55;6.30;99.90
4699;DHT22;33708;49.466;11.176;2023-02-03T06:05:21;6.30;99.90
4699;DHT22;33708;49.466;11.176;2023-02-03T06:07:48;6.30;99.90
4699;DHT22;33708;49.466;11.176;2023-02-03T06:10:14;6.30;99.90
4699;DHT22;33708;49.466;11.176;2023-02-03T06:12:40;6.40;99.90
4699;DHT22;33708;49.466;11.176;2023-02-03T06:15:07;6.40;99.90
4699;DHT22;33708;49.466;11.176;2023-02-03T06:17:33;6.40;99.90
4699;DHT22;33708;49.466;11.176;2023-02-03T06:20:07;6.40;99.90
4699;DHT22;33708;49.466;11.176;2023-02-03T06:22:33;6.40;99.90
4699;DHT22;33708;49.466;11.176;2023-02-03T06:24:59;6.40;99.90
4699;DHT22;33708;49.466;11.176;2023-02-03T06:27:25;6.40;99.90
4699;DHT22;33708;49.466;11.176;2023-02-03T06:29:50;6.40;99.90
4699;DHT22;33708;49.466;11.176;2023-02-03T06:32:16;6.40;99.90
4699;DHT22;33708;49.466;11.176;2023-02-03T06:34:42;6.40;99.90
4699;DHT22;33708;49.466;11.176;2023-02-03T06:37:07;6.40;99.90
4699;DHT22;33708;49.466;11.176;2023-02-03T06:39:33;6.40;99.90
4699;DHT22;33708;49.466;11.176;2023-02-03T06:41:58;6.40;99.90
4699;DHT22;33708;49.466;11.176;2023-02-03T06:44:24;6.30;99.90
4699;DHT22;33708;49.466;11.176;2023-02-03T06:46:51;6.30;99.90
4699;DHT22;33708;49.466;11.176;2023-02-03T06:49:17;6.30;99.90
4699;DHT22;33708;49.466;11.176;2023-02-03T06:51:44;6.30;99.90
4699;DHT22;33708;49.466;11.176;2023-02-03T06:54:11;6.30;99.90
4699;DHT22;33708;49.466;11.176;2023-02-03T06:56:37;6.30;99.90
4699;DHT22;33708;49.466;11.176;2023-02-03T06:59:03;6.40;99.90
4699;DHT22;33708;49.466;11.176;2023-02-03T07:01:29;6.50;99.90
4699;DHT22;33708;49.466;11.176;2023-02-03T07:03:56;6.40;99.90
4699;DHT22;33708;49.466;11.176;2023-02-03T07:06:26;6.50;99.90
4699;DHT22;33708;49.466;11.176;2023-02-03T07:08:54;6.50;99.90
4699;DHT22;33708;49.466;11.176;2023-02-03T07:11:20;6.50;99.90
4699;DHT22;33708;49.466;11.176;2023-02-03T07:13:46;6.50;99.90
4699;DHT22;33708;49.466;11.176;2023-02-03T07:16:12;6.60;99.90
4699;DHT22;33708;49.466;11.176;2023-02-03T07:18:38;6.50;99.90
4699;DHT22;33708;49.466;11.176;2023-02-03T07:21:05;6.60;99.90
4699;DHT22;33708;49.466;11.176;2023-02-03T07:23:30;6.70;99.90
4699;DHT22;33708;49.466;11.176;2023-02-03T07:26:00;6.60;99.90
4699;DHT22;33708;49.466;11.176;2023-02-03T07:28:27;6.60;99.90
4699;DHT22;33708;49.466;11.176;2023-02-03T07:30:53;6.60;99.90
4699;DHT22;33708;49.466;11.176;2023-02-03T07:33:18;6.60;99.90
4699;DHT22;33708;49.466;11.176;2023-02-03T07:35:53;6.60;99.90
4699;DHT22;33708;49.466;11.176;2023-02-03T07:38:19;6.70;99.90
4699;DHT22;33708;49.466;11.176;2023-02-03T07:40:45;6.60;99.90
4699;DHT22;33708;49.466;11.176;2023-02-03T07:43:11;6.50;99.90
4699;DHT22;33708;49.466;11.176;2023-02-03T07:45:36;6.60;99.90
4699;DHT22;33708;49.466;11.176;2023-02-03T07:48:02;6.70;99.90
4699;DHT22;33708;49.466;11.176;2023-02-03T07:50:28;6.70;99.90
4699;DHT22;33708;49.466;11.176;2023-02-03T07:52:53;6.70;99.90
4699;DHT22;33708;49.466;11.176;2023-02-03T07:55:20;6.70;99.90
4699;DHT22;33708;49.466;11.176;2023-02-03T07:57:46;6.70;99.90
4699;DHT22;33708;49.466;11.176;2023-02-03T08:00:14;6.70;99.90
4699;DHT22;33708;49.466;11.176;2023-02-03T08:02:41;6.70;99.90
4699;DHT22;33708;49.466;11.176;2023-02-03T08:05:08;6.80;99.90
4699;DHT22;33708;49.466;11.176;2023-02-03T08:07:34;6.80;99.90
4699;DHT22;33708;49.466;11.176;2023-02-03T08:10:00;6.80;99.90
4699;DHT22;33708;49.466;11.176;2023-02-03T08:12:25;6.80;99.90
4699;DHT22;33708;49.466;11.176;2023-02-03T08:14:51;6.80;99.90
4699;DHT22;33708;49.466;11.176;2023-02-03T08:17:16;6.80;99.90
4699;DHT22;33708;49.466;11.176;2023-02-03T08:19:42;6.80;99.90
4699;DHT22;33708;49.466;11.176;2023-02-03T08:22:08;6.70;99.90
4699;DHT22;33708;49.466;11.176;2023-02-03T08:24:33;6.70;99.90
4699;DHT22;33708;49.466;11.176;2023-02-03T08:27:00;6.80;99.90
4699;DHT22;33708;49.466;11.176;2023-02-03T08:29:26;6.80;99.90
4699;DHT22;33708;49.466;11.176;2023-02-03T08:31:51;6.70;99.90
4699;DHT22;33708;49.466;11.176;2023-02-03T08:34:18;6.80;99.90
4699;DHT22;33708;49.466;11.176;2023-02-03T08:36:44;6.90;99.90
4699;DHT22;33708;49.466;11.176;2023-02-03T08:39:10;6.90;99.90
4699;DHT22;33708;49.466;11.176;2023-02-03T08:41:35;7.00;99.90
4699;DHT22;33708;49.466;11.176;2023-02-03T08:44:01;7.10;99.90
4699;DHT22;33708;49.466;11.176;2023-02-03T08:46:26;6.90;99.90
4699;DHT22;33708;49.466;11.176;2023-02-03T08:48:53;7.00;99.90
4699;DHT22;33708;49.466;11.176;2023-02-03T08:51:21;7.00;99.90
4699;DHT22;33708;49.466;11.176;2023-02-03T08:53:46;7.00;99.90
4699;DHT22;33708;49.466;11.176;2023-02-03T08:56:12;7.00;99.90
4699;DHT22;33708;49.466;11.176;2023-02-03T08:58:38;7.10;99.90
4699;DHT22;33708;49.466;11.176;2023-02-03T09:01:12;7.00;99.90
4699;DHT22;33708;49.466;11.176;2023-02-03T09:03:39;7.10;99.90
4699;DHT22;33708;49.466;11.176;2023-02-03T09:06:05;7.00;99.90
4699;DHT22;33708;49.466;11.176;2023-02-03T09:08:32;6.90;99.90
4699;DHT22;33708;49.466;11.176;2023-02-03T09:10:57;7.10;99.90
4699;DHT22;33708;49.466;11.176;2023-02-03T09:13:23;7.00;99.90
4699;DHT22;33708;49.466;11.176;2023-02-03T09:15:49;7.00;99.90
4699;DHT22;33708;49.466;11.176;2023-02-03T09:18:14;7.00;99.90
4699;DHT22;33708;49.466;11.176;2023-02-03T09:20:40;6.90;99.90
4699;DHT22;33708;49.466;11.176;2023-02-03T09:23:06;7.10;99.90
4699;DHT22;33708;49.466;11.176;2023-02-03T09:25:32;7.20;99.90
4699;DHT22;33708;49.466;11.176;2023-02-03T09:28:00;7.00;99.90
4699;DHT22;33708;49.466;11.176;2023-02-03T09:30:26;6.90;99.90
4699;DHT22;33708;49.466;11.176;2023-02-03T09:32:52;7.00;99.90
4699;DHT22;33708;49.466;11.176;2023-02-03T09:35:19;6.90;99.90
4699;DHT22;33708;49.466;11.176;2023-02-03T09:37:45;6.80;99.90
4699;DHT22;33708;49.466;11.176;2023-02-03T09:40:25;7.10;99.90
4699;DHT22;33708;49.466;11.176;2023-02-03T09:42:57;7.30;99.90
4699;DHT22;33708;49.466;11.176;2023-02-03T09:45:26;7.60;99.90
4699;DHT22;33708;49.466;11.176;2023-02-03T09:47:56;7.50;99.90
4699;DHT22;33708;49.466;11.176;2023-02-03T09:50:27;7.40;99.90
4699;DHT22;33708;49.466;11.176;2023-02-03T09:52:55;7.30;99.90
4699;DHT22;33708;49.466;11.176;2023-02-03T09:55:33;7.30;99.90
4699;DHT22;33708;49.466;11.176;2023-02-03T09:58:10;7.30;99.90
4699;DHT22;33708;49.466;11.176;2023-02-03T10:00:46;7.30;99.90
4699;DHT22;33708;49.466;11.176;2023-02-03T10:09:04;7.30;99.90
4699;DHT22;33708;49.466;11.176;2023-02-03T10:14:37;7.40;99.90
4699;DHT22;33708;49.466;11.176;2023-02-03T10:19:42;7.50;99.90
4699;DHT22;33708;49.466;11.176;2023-02-03T10:22:16;7.70;99.90
4699;DHT22;33708;49.466;11.176;2023-02-03T10:27:40;7.70;99.90
4699;DHT22;33708;49.466;11.176;2023-02-03T10:30:21;7.90;99.90
4699;DHT22;33708;49.466;11.176;2023-02-03T10:33:08;7.70;99.90
4699;DHT22;33708;49.466;11.176;2023-02-03T10:41:21;7.80;99.90
4699;DHT22;33708;49.466;11.176;2023-02-03T10:43:49;7.60;99.90
4699;DHT22;33708;49.466;11.176;2023-02-03T10:46:18;7.60;99.90
4699;DHT22;33708;49.466;11.176;2023-02-03T10:48:44;7.60;99.90
4699;DHT22;33708;49.466;11.176;2023-02-03T10:51:25;7.60;99.90
4699;DHT22;33708;49.466;11.176;2023-02-03T10:53:52;7.60;99.90
4699;DHT22;33708;49.466;11.176;2023-02-03T10:56:24;7.60;99.90
4699;DHT22;33708;49.466;11.176;2023-02-03T10:58:55;7.60;99.90
4699;DHT22;33708;49.466;11.176;2023-02-03T11:01:37;7.50;99.90
4699;DHT22;33708;49.466;11.176;2023-02-03T11:04:05;7.60;99.90
4699;DHT22;33708;49.466;11.176;2023-02-03T11:06:33;7.60;99.90
4699;DHT22;33708;49.466;11.176;2023-02-03T11:08:59;7.60;99.90
4699;DHT22;33708;49.466;11.176;2023-02-03T11:11:31;7.50;99.90
4699;DHT22;33708;49.466;11.176;2023-02-03T11:16:28;7.50;99.90
4699;DHT22;33708;49.466;11.176;2023-02-03T11:18:57;7.60;99.90
4699;DHT22;33708;49.466;11.176;2023-02-03T11:21:27;7.70;99.90
4699;DHT22;33708;49.466;11.176;2023-02-03T11:24:39;7.50;99.90
4699;DHT22;33708;49.466;11.176;2023-02-03T11:26:59;7.60;99.90
4699;DHT22;33708;49.466;11.176;2023-02-03T11:29:31;7.60;99.90
4699;DHT22;33708;49.466;11.176;2023-02-03T11:32:01;7.70;99.90
4699;DHT22;33708;49.466;11.176;2023-02-03T11:34:31;7.70;99.90
4699;DHT22;33708;49.466;11.176;2023-02-03T11:36:58;7.70;99.90
4699;DHT22;33708;49.466;11.176;2023-02-03T11:39:34;7.80;99.90
4699;DHT22;33708;49.466;11.176;2023-02-03T11:42:01;7.80;99.90
4699;DHT22;33708;49.466;11.176;2023-02-03T11:44:29;7.90;99.90
4699;DHT22;33708;49.466;11.176;2023-02-03T11:47:00;7.80;99.90
4699;DHT22;33708;49.466;11.176;2023-02-03T11:52:17;7.80;99.90
4699;DHT22;33708;49.466;11.176;2023-02-03T11:55:15;7.80;99.90
4699;DHT22;33708;49.466;11.176;2023-02-03T12:01:37;7.80;99.90
4699;DHT22;33708;49.466;11.176;2023-02-03T12:09:06;7.80;99.90
4699;DHT22;33708;49.466;11.176;2023-02-03T12:14:06;8.00;99.90
4699;DHT22;33708;49.466;11.176;2023-02-03T12:16:57;7.80;99.90
4699;DHT22;33708;49.466;11.176;2023-02-03T12:25:34;7.80;99.90
4699;DHT22;33708;49.466;11.176;2023-02-03T12:30:45;7.80;99.90
4699;DHT22;33708;49.466;11.176;2023-02-03T12:33:23;7.70;99.90
4699;DHT22;33708;49.466;11.176;2023-02-03T12:35:58;7.80;99.90
4699;DHT22;33708;49.466;11.176;2023-02-03T12:38:33;7.70;99.90
4699;DHT22;33708;49.466;11.176;2023-02-03T12:41:13;7.70;99.90
4699;DHT22;33708;49.466;11.176;2023-02-03T12:43:40;7.70;99.90
4699;DHT22;33708;49.466;11.176;2023-02-03T12:46:15;7.70;99.90
4699;DHT22;33708;49.466;11.176;2023-02-03T12:53:57;7.60;99.90
4699;DHT22;33708;49.466;11.176;2023-02-03T12:56:30;7.60;99.90
4699;DHT22;33708;49.466;11.176;2023-02-03T12:59:04;7.60;99.90
4699;DHT22;33708;49.466;11.176;2023-02-03T13:01:34;7.60;99.90
4699;DHT22;33708;49.466;11.176;2023-02-03T13:04:48;7.50;99.90
4699;DHT22;33708;49.466;11.176;2023-02-03T13:10:00;7.50;99.90
4699;DHT22;33708;49.466;11.176;2023-02-03T13:12:40;7.40;99.90
4699;DHT22;33708;49.466;11.176;2023-02-03T13:17:58;7.50;99.90
4699;DHT22;33708;49.466;11.176;2023-02-03T13:20:28;7.40;99.90
4699;DHT22;33708;49.466;11.176;2023-02-03T13:22:56;7.30;99.90
4699;DHT22;33708;49.466;11.176;2023-02-03T13:25:26;7.30;99.90
4699;DHT22;33708;49.466;11.176;2023-02-03T13:41:48;7.40;99.90
4699;DHT22;33708;49.466;11.176;2023-02-03T13:44:19;7.40;99.90
4699;DHT22;33708;49.466;11.176;2023-02-03T13:46:49;7.50;99.90
4699;DHT22;33708;49.466;11.176;2023-02-03T13:49:35;7.40;99.90
4699;DHT22;33708;49.466;11.176;2023-02-03T13:52:01;7.30;99.90
4699;DHT22;33708;49.466;11.176;2023-02-03T13:56:58;7.40;99.90
4699;DHT22;33708;49.466;11.176;2023-02-03T13:59:42;7.40;99.90
4699;DHT22;33708;49.466;11.176;2023-02-03T14:04:53;7.40;99.90
4699;DHT22;33708;49.466;11.176;2023-02-03T14:07:26;7.40;99.90
4699;DHT22;33708;49.466;11.176;2023-02-03T14:12:37;7.30;99.90
4699;DHT22;33708;49.466;11.176;2023-02-03T14:18:01;7.30;99.90
4699;DHT22;33708;49.466;11.176;2023-02-03T14:22:59;7.30;99.90
4699;DHT22;33708;49.466;11.176;2023-02-03T14:25:31;7.40;99.90
4699;DHT22;33708;49.466;11.176;2023-02-03T14:28:04;7.30;99.90
4699;DHT22;33708;49.466;11.176;2023-02-03T14:30:30;7.20;99.90
4699;DHT22;33708;49.466;11.176;2023-02-03T14:33:00;7.20;99.90
4699;DHT22;33708;49.466;11.176;2023-02-03T14:35:34;7.10;99.90
4699;DHT22;33708;49.466;11.176;2023-02-03T14:38:06;7.10;99.90
4699;DHT22;33708;49.466;11.176;2023-02-03T14:46:15;7.20;99.90
4699;DHT22;33708;49.466;11.176;2023-02-03T14:49:18;7.20;99.90
4699;DHT22;33708;49.466;11.176;2023-02-03T14:52:00;7.00;99.90
4699;DHT22;33708;49.466;11.176;2023-02-03T14:57:17;6.80;99.90
4699;DHT22;33708;49.466;11.176;2023-02-03T15:02:21;6.90;99.90
4699;DHT22;33708;49.466;11.176;2023-02-03T15:05:34;6.90;99.90
4699;DHT22;33708;49.466;11.176;2023-02-03T15:07:47;6.90;99.90
4699;DHT22;33708;49.466;11.176;2023-02-03T15:10:17;6.90;99.90
4699;DHT22;33708;49.466;11.176;2023-02-03T15:12:46;6.80;99.90
4699;DHT22;33708;49.466;11.176;2023-02-03T15:15:13;6.90;99.90
4699;DHT22;33708;49.466;11.176;2023-02-03T15:17:38;6.90;99.90
4699;DHT22;33708;49.466;11.176;2023-02-03T15:20:29;7.00;99.90
4699;DHT22;33708;49.466;11.176;2023-02-03T15:22:55;7.00;99.90
4699;DHT22;33708;49.466;11.176;2023-02-03T15:25:22;6.80;99.90
4699;DHT22;33708;49.466;11.176;2023-02-03T15:27:49;6.90;99.90
4699;DHT22;33708;49.466;11.176;2023-02-03T15:30:26;6.90;99.90
4699;DHT22;33708;49.466;11.176;2023-02-03T15:33:06;6.90;99.90
4699;DHT22;33708;49.466;11.176;2023-02-03T15:35:34;6.90;99.90
4699;DHT22;33708;49.466;11.176;2023-02-03T15:38:09;6.80;99.90
4699;DHT22;33708;49.466;11.176;2023-02-03T15:40:42;6.90;99.90
4699;DHT22;33708;49.466;11.176;2023-02-03T15:43:30;6.80;99.90
4699;DHT22;33708;49.466;11.176;2023-02-03T15:49:26;6.80;99.90
4699;DHT22;33708;49.466;11.176;2023-02-03T15:52:06;6.80;99.90
4699;DHT22;33708;49.466;11.176;2023-02-03T15:54:35;6.80;99.90
4699;DHT22;33708;49.466;11.176;2023-02-03T15:57:14;6.80;99.90
4699;DHT22;33708;49.466;11.176;2023-02-03T15:59:43;6.70;99.90
4699;DHT22;33708;49.466;11.176;2023-02-03T16:02:16;6.80;99.90
4699;DHT22;33708;49.466;11.176;2023-02-03T16:04:44;7.10;1.00
4699;DHT22;33708;49.466;11.176;2023-02-03T16:07:16;6.80;1.00
4699;DHT22;33708;49.466;11.176;2023-02-03T16:09:42;6.70;59.10
4699;DHT22;33708;49.466;11.176;2023-02-03T16:12:30;6.80;1.00
4699;DHT22;33708;49.466;11.176;2023-02-03T16:14:58;6.70;1.00
4699;DHT22;33708;49.466;11.176;2023-02-03T16:17:36;6.80;1.00
4699;DHT22;33708;49.466;11.176;2023-02-03T16:22:37;6.80;1.00
4699;DHT22;33708;49.466;11.176;2023-02-03T16:25:24;6.90;1.00
4699;DHT22;33708;49.466;11.176;2023-02-03T16:27:59;6.90;1.00
4699;DHT22;33708;49.466;11.176;2023-02-03T16:30:59;6.80;1.00
4699;DHT22;33708;49.466;11.176;2023-02-03T16:33:46;6.80;1.00
4699;DHT22;33708;49.466;11.176;2023-02-03T16:36:31;6.70;1.00
4699;DHT22;33708;49.466;11.176;2023-02-03T16:39:15;6.80;99.90
4699;DHT22;33708;49.466;11.176;2023-02-03T16:42:00;6.90;1.00
4699;DHT22;33708;49.466;11.176;2023-02-03T16:44:49;6.90;99.90
4699;DHT22;33708;49.466;11.176;2023-02-03T16:47:37;6.90;99.90
4699;DHT22;33708;49.466;11.176;2023-02-03T16:50:23;6.90;99.90
4699;DHT22;33708;49.466;11.176;2023-02-03T16:53:16;6.80;99.90
4699;DHT22;33708;49.466;11.176;2023-02-03T16:55:44;6.90;99.90
4699;DHT22;33708;49.466;11.176;2023-02-03T16:58:10;6.90;99.90
4699;DHT22;33708;49.466;11.176;2023-02-03T17:00:38;6.90;99.90
4699;DHT22;33708;49.466;11.176;2023-02-03T17:03:07;6.90;99.90
4699;DHT22;33708;49.466;11.176;2023-02-03T17:05:36;6.90;99.90
4699;DHT22;33708;49.466;11.176;2023-02-03T17:08:02;6.90;99.90
4699;DHT22;33708;49.466;11.176;2023-02-03T17:10:28;7.00;99.90
4699;DHT22;33708;49.466;11.176;2023-02-03T17:12:54;7.00;99.90
4699;DHT22;33708;49.466;11.176;2023-02-03T17:15:19;7.00;99.90
4699;DHT22;33708;49.466;11.176;2023-02-03T17:17:45;7.00;99.90
4699;DHT22;33708;49.466;11.176;2023-02-03T17:20:10;7.00;99.90
4699;DHT22;33708;49.466;11.176;2023-02-03T17:22:36;7.10;99.90
4699;DHT22;33708;49.466;11.176;2023-02-03T17:25:02;7.10;99.90
4699;DHT22;33708;49.466;11.176;2023-02-03T17:27:27;7.10;99.90
4699;DHT22;33708;49.466;11.176;2023-02-03T17:29:53;7.10;99.90
4699;DHT22;33708;49.466;11.176;2023-02-03T17:32:19;7.10;99.90
4699;DHT22;33708;49.466;11.176;2023-02-03T17:34:45;7.10;99.90
4699;DHT22;33708;49.466;11.176;2023-02-03T17:37:11;7.10;99.90
4699;DHT22;33708;49.466;11.176;2023-02-03T17:39:36;7.10;99.90
4699;DHT22;33708;49.466;11.176;2023-02-03T17:42:02;7.00;99.90
4699;DHT22;33708;49.466;11.176;2023-02-03T17:44:28;7.10;99.90
4699;DHT22;33708;49.466;11.176;2023-02-03T17:46:53;7.20;99.90
4699;DHT22;33708;49.466;11.176;2023-02-03T17:49:19;7.20;99.90
4699;DHT22;33708;49.466;11.176;2023-02-03T17:51:44;7.20;99.90
4699;DHT22;33708;49.466;11.176;2023-02-03T17:54:10;7.30;99.90
4699;DHT22;33708;49.466;11.176;2023-02-03T17:56:36;7.40;99.90
4699;DHT22;33708;49.466;11.176;2023-02-03T17:59:03;7.40;99.90
4699;DHT22;33708;49.466;11.176;2023-02-03T18:01:29;7.50;99.90
4699;DHT22;33708;49.466;11.176;2023-02-03T18:04:05;7.30;99.90
4699;DHT22;33708;49.466;11.176;2023-02-03T18:06:33;7.50;99.90
4699;DHT22;33708;49.466;11.176;2023-02-03T18:09:03;7.50;99.90
4699;DHT22;33708;49.466;11.176;2023-02-03T18:11:30;7.50;99.90
4699;DHT22;33708;49.466;11.176;2023-02-03T18:13:56;7.50;99.90